createdAt,value
2018-07-15T00:00:54.891Z,22.62
2018-07-15T00:04:58.319Z,22.60
2018-07-15T00:09:01.727Z,22.62
2018-07-15T00:13:05.165Z,22.61
2018-07-15T00:17:08.581Z,22.58
2018-07-15T00:21:12.041Z,22.58
2018-07-15T00:25:15.442Z,22.58
2018-07-15T00:29:18.873Z,22.56
2018-07-15T00:33:22.462Z,22.53
2018-07-15T00:37:25.934Z,22.49
2018-07-15T00:41:29.718Z,22.46
2018-07-15T00:45:33.117Z,22.45
2018-07-15T00:49:36.556Z,22.42
2018-07-15T00:53:39.991Z,22.38
2018-07-15T00:57:43.424Z,22.35
2018-07-15T01:01:46.834Z,22.34
2018-07-15T01:05:51.160Z,22.27
2018-07-15T01:09:54.614Z,22.22
2018-07-15T01:13:58.985Z,22.16
2018-07-15T01:18:02.430Z,22.10
2018-07-15T01:22:05.918Z,22.05
2018-07-15T01:26:09.365Z,22.02
2018-07-15T01:30:12.823Z,21.99
2018-07-15T01:34:16.459Z,21.95
2018-07-15T01:38:19.908Z,21.93
2018-07-15T01:42:23.486Z,21.91
2018-07-15T01:46:28.487Z,21.85
2018-07-15T01:50:32.853Z,21.79
2018-07-15T01:54:36.892Z,21.73
2018-07-15T01:58:41.962Z,21.64
2018-07-15T02:02:45.385Z,21.56
2018-07-15T02:06:48.854Z,21.49
2018-07-15T02:10:53.414Z,21.41
2018-07-15T02:14:56.857Z,21.38
2018-07-15T02:19:00.277Z,21.33
2018-07-15T02:23:03.741Z,21.29
2018-07-15T02:27:07.491Z,21.25
2018-07-15T02:31:18.650Z,21.22
2018-07-15T02:35:22.166Z,21.19
2018-07-15T02:39:25.594Z,21.17
2018-07-15T02:43:29.031Z,21.14
2018-07-15T02:47:32.446Z,21.12
2018-07-15T02:51:35.873Z,21.12
2018-07-15T02:55:39.307Z,21.09
2018-07-15T02:59:42.798Z,21.05
2018-07-15T03:03:46.199Z,21.02
2018-07-15T03:07:49.630Z,20.96
2018-07-15T03:11:53.060Z,20.93
2018-07-15T03:15:56.499Z,20.88
2018-07-15T03:19:59.912Z,20.86
2018-07-15T03:24:03.442Z,20.82
2018-07-15T03:28:07.008Z,20.80
2018-07-15T03:32:10.439Z,20.79
2018-07-15T03:36:13.845Z,20.77
2018-07-15T03:40:17.394Z,20.74
2018-07-15T03:44:20.789Z,20.69
2018-07-15T03:48:24.298Z,20.62
2018-07-15T03:52:27.749Z,20.57
2018-07-15T03:56:31.133Z,20.55
2018-07-15T04:00:34.635Z,20.49
2018-07-15T04:04:38.067Z,20.48
2018-07-15T04:08:41.654Z,20.47
2018-07-15T04:12:44.964Z,20.49
2018-07-15T04:16:48.422Z,20.51
2018-07-15T04:20:51.855Z,20.55
2018-07-15T04:24:55.293Z,20.55
2018-07-15T04:28:58.875Z,20.57
2018-07-15T04:33:02.321Z,20.58
2018-07-15T04:37:06.033Z,20.55
2018-07-15T04:41:09.475Z,20.55
2018-07-15T04:45:12.895Z,20.57
2018-07-15T04:49:16.323Z,20.59
2018-07-15T04:53:19.765Z,20.64
2018-07-15T04:57:23.198Z,20.69
2018-07-15T05:01:26.664Z,20.75
2018-07-15T05:05:30.254Z,20.80
2018-07-15T05:09:33.687Z,20.88
2018-07-15T05:13:37.144Z,20.94
2018-07-15T05:17:40.572Z,21.04
2018-07-15T05:21:44.036Z,21.14
2018-07-15T05:25:47.452Z,21.23
2018-07-15T05:29:50.893Z,21.35
2018-07-15T05:33:54.332Z,21.48
2018-07-15T05:37:57.794Z,21.62
2018-07-15T05:42:01.289Z,21.76
2018-07-15T05:46:04.732Z,21.88
2018-07-15T05:50:08.281Z,22.01
2018-07-15T05:54:11.706Z,22.15
2018-07-15T05:58:15.144Z,22.30
2018-07-15T06:02:18.607Z,22.45
2018-07-15T06:06:22.018Z,22.58
2018-07-15T06:10:25.459Z,22.72
2018-07-15T06:14:29.232Z,22.84
2018-07-15T06:18:32.670Z,23.03
2018-07-15T06:22:36.465Z,23.19
2018-07-15T06:26:39.881Z,23.36
2018-07-15T06:30:43.342Z,23.53
2018-07-15T06:34:46.771Z,23.69
2018-07-15T06:38:50.183Z,23.82
2018-07-15T06:42:53.582Z,23.95
2018-07-15T06:46:56.988Z,24.08
2018-07-15T06:51:00.448Z,24.21
2018-07-15T06:55:04.027Z,24.40
2018-07-15T06:59:07.447Z,24.57
2018-07-15T07:03:10.892Z,24.70
2018-07-15T07:07:14.427Z,24.85
2018-07-15T07:11:17.971Z,25.00
2018-07-15T07:15:21.502Z,25.07
2018-07-15T07:19:24.911Z,25.12
2018-07-15T07:23:28.391Z,25.23
2018-07-15T07:27:31.815Z,25.40
2018-07-15T07:31:35.273Z,25.56
2018-07-15T07:35:38.689Z,25.73
2018-07-15T07:39:42.127Z,25.82
2018-07-15T07:43:45.626Z,25.84
2018-07-15T07:47:49.026Z,25.81
2018-07-15T07:51:52.570Z,25.74
2018-07-15T07:55:56.008Z,25.73
2018-07-15T07:59:59.417Z,25.72
2018-07-15T08:04:02.814Z,25.84
2018-07-15T08:08:06.289Z,25.82
2018-07-15T08:12:09.767Z,25.92
2018-07-15T08:16:13.429Z,25.88
2018-07-15T08:20:16.858Z,25.90
2018-07-15T08:24:20.291Z,26.02
2018-07-15T08:28:23.894Z,26.11
2018-07-15T08:32:27.409Z,26.20
2018-07-15T08:36:30.838Z,26.35
2018-07-15T08:40:34.309Z,26.47
2018-07-15T08:44:37.738Z,26.54
2018-07-15T08:48:41.159Z,26.62
2018-07-15T08:52:44.637Z,26.75
2018-07-15T08:56:48.041Z,26.79
2018-07-15T09:00:51.477Z,26.83
2018-07-15T09:04:54.940Z,27.01
2018-07-15T09:08:58.363Z,27.05
2018-07-15T09:13:01.806Z,27.16
2018-07-15T09:17:05.246Z,27.26
2018-07-15T09:21:08.684Z,27.32
2018-07-15T09:25:12.138Z,27.24
2018-07-15T09:29:15.536Z,27.15
2018-07-15T09:33:19.115Z,27.24
2018-07-15T09:37:22.590Z,27.31
2018-07-15T09:41:26.024Z,27.33
2018-07-15T09:45:29.470Z,27.25
2018-07-15T09:49:32.962Z,27.34
2018-07-15T09:53:36.429Z,27.41
2018-07-15T09:57:39.844Z,27.53
2018-07-15T10:01:43.273Z,27.62
2018-07-15T10:05:46.781Z,27.70
2018-07-15T10:09:50.195Z,27.79
2018-07-15T10:13:53.606Z,27.87
2018-07-15T10:17:57.038Z,27.86
2018-07-15T10:22:00.454Z,27.82
2018-07-15T10:26:03.851Z,27.86
2018-07-15T10:30:07.390Z,27.93
2018-07-15T10:34:10.892Z,27.94
2018-07-15T10:38:14.323Z,27.98
2018-07-15T10:42:17.731Z,27.92
2018-07-15T10:46:21.171Z,27.97
2018-07-15T10:50:24.601Z,28.11
2018-07-15T10:54:28.068Z,28.35
2018-07-15T10:58:31.506Z,28.55
2018-07-15T11:02:34.938Z,28.62
2018-07-15T11:06:38.377Z,28.57
2018-07-15T11:10:41.788Z,28.56
2018-07-15T11:14:45.246Z,28.58
2018-07-15T11:18:48.676Z,28.57
2018-07-15T11:22:52.220Z,28.72
2018-07-15T11:26:55.664Z,28.80
2018-07-15T11:30:59.190Z,28.86
2018-07-15T11:35:02.594Z,28.99
2018-07-15T11:39:07.079Z,29.02
2018-07-15T11:43:10.425Z,28.98
2018-07-15T11:47:13.886Z,28.99
2018-07-15T11:51:17.498Z,29.01
2018-07-15T11:55:20.948Z,29.11
2018-07-15T11:59:24.395Z,29.21
2018-07-15T12:03:27.810Z,29.33
2018-07-15T12:07:31.326Z,29.53
2018-07-15T12:11:35.128Z,29.70
2018-07-15T12:15:38.767Z,29.80
2018-07-15T12:19:42.600Z,29.87
2018-07-15T12:23:46.417Z,30.00
2018-07-15T12:27:50.103Z,29.97
2018-07-15T12:31:53.912Z,29.85
2018-07-15T12:35:57.677Z,29.63
2018-07-15T12:40:01.358Z,29.69
2018-07-15T12:44:05.180Z,29.74
2018-07-15T12:48:08.933Z,29.75
2018-07-15T12:52:12.687Z,29.82
2018-07-15T12:56:16.400Z,29.84
2018-07-15T13:00:20.089Z,29.87
2018-07-15T13:04:23.827Z,29.85
2018-07-15T13:08:27.520Z,29.78
2018-07-15T13:12:31.488Z,29.70
2018-07-15T13:25:36.843Z,29.29
2018-07-15T13:29:40.299Z,29.28
2018-07-15T13:33:44.584Z,29.42
2018-07-15T13:37:48.014Z,29.49
2018-07-15T13:41:51.499Z,29.59
2018-07-15T13:45:54.989Z,29.67
2018-07-15T13:49:58.440Z,29.83
2018-07-15T13:54:01.959Z,29.84
2018-07-15T13:58:05.416Z,29.72
2018-07-15T14:02:08.816Z,29.64
2018-07-15T14:06:12.237Z,29.52
2018-07-15T14:10:15.662Z,29.41
2018-07-15T14:14:19.086Z,29.37
2018-07-15T14:18:22.507Z,29.37
2018-07-15T14:22:25.966Z,29.38
2018-07-15T14:26:29.419Z,29.45
2018-07-15T14:30:32.898Z,29.44
2018-07-15T14:34:36.479Z,29.45
2018-07-15T14:38:39.913Z,29.46
2018-07-15T14:42:43.322Z,29.42
2018-07-15T14:46:46.848Z,29.40
2018-07-15T14:50:50.203Z,29.42
2018-07-15T14:54:53.644Z,29.36
2018-07-15T14:58:57.080Z,29.34
2018-07-15T15:03:00.502Z,29.38
2018-07-15T15:07:03.941Z,29.39
2018-07-15T15:11:07.528Z,29.43
2018-07-15T15:15:10.954Z,29.39
2018-07-15T15:19:14.396Z,29.42
2018-07-15T15:23:17.990Z,29.47
2018-07-15T15:27:21.546Z,29.44
2018-07-15T15:31:25.018Z,29.43
2018-07-15T15:35:28.442Z,29.43
2018-07-15T15:39:31.940Z,29.41
2018-07-15T15:43:35.411Z,29.40
2018-07-15T15:47:38.866Z,29.38
2018-07-15T15:51:42.297Z,29.28
2018-07-15T15:55:45.785Z,29.18
2018-07-15T15:59:49.265Z,29.12
2018-07-15T16:03:52.706Z,29.08
2018-07-15T16:07:56.132Z,29.06
2018-07-15T16:11:59.545Z,29.06
2018-07-15T16:16:02.980Z,29.05
2018-07-15T16:20:06.896Z,29.07
2018-07-15T16:24:10.342Z,29.04
2018-07-15T16:28:13.777Z,29.02
2018-07-15T16:32:17.211Z,28.95
2018-07-15T16:36:20.595Z,28.95
2018-07-15T16:40:24.058Z,28.96
2018-07-15T16:44:27.511Z,28.98
2018-07-15T16:48:30.955Z,29.01
2018-07-15T16:52:34.400Z,29.02
2018-07-15T16:56:37.848Z,29.01
2018-07-15T17:00:41.257Z,29.02
2018-07-15T17:04:44.684Z,29.01
2018-07-15T17:08:48.081Z,29.04
2018-07-15T17:12:51.628Z,29.03
2018-07-15T17:16:55.107Z,29.04
2018-07-15T17:20:58.559Z,29.03
2018-07-15T17:25:02.011Z,28.96
2018-07-15T17:29:05.457Z,28.84
2018-07-15T17:33:08.880Z,28.79
2018-07-15T17:37:12.364Z,28.80
2018-07-15T17:41:15.797Z,28.75
2018-07-15T17:45:19.299Z,28.70
2018-07-15T17:49:26.519Z,28.69
2018-07-15T17:53:29.949Z,28.66
2018-07-15T17:57:33.383Z,28.65
2018-07-15T18:01:36.887Z,28.52
2018-07-15T18:05:40.308Z,28.40
2018-07-15T18:09:43.818Z,28.33
2018-07-15T18:13:47.346Z,28.26
2018-07-15T18:17:50.812Z,28.19
2018-07-15T18:21:54.415Z,28.12
2018-07-15T18:25:57.815Z,28.00
2018-07-15T18:30:01.325Z,27.91
2018-07-15T18:34:04.749Z,27.84
2018-07-15T18:38:08.193Z,27.75
2018-07-15T18:42:11.612Z,27.68
2018-07-15T18:46:15.065Z,27.62
2018-07-15T18:50:18.468Z,27.52
2018-07-15T18:54:21.901Z,27.47
2018-07-15T18:58:25.295Z,27.41
2018-07-15T19:02:28.727Z,27.37
2018-07-15T19:06:32.192Z,27.32
2018-07-15T19:10:35.920Z,27.28
2018-07-15T19:14:39.350Z,27.22
2018-07-15T19:18:42.802Z,27.17
2018-07-15T19:22:46.540Z,27.09
2018-07-15T19:26:50.565Z,27.00
2018-07-15T19:30:54.006Z,26.90
2018-07-15T19:34:57.442Z,26.85
2018-07-15T19:39:00.910Z,26.76
2018-07-15T19:43:04.385Z,26.68
2018-07-15T19:47:07.832Z,26.63
2018-07-15T19:51:11.258Z,26.59
2018-07-15T19:55:14.757Z,26.56
2018-07-15T19:59:18.152Z,26.53
2018-07-15T20:03:21.575Z,26.49
2018-07-15T20:07:25.054Z,26.46
2018-07-15T20:11:28.493Z,26.41
2018-07-15T20:15:31.964Z,26.40
2018-07-15T20:19:35.426Z,26.39
2018-07-15T20:23:38.827Z,26.37
2018-07-15T20:27:42.361Z,26.36
2018-07-15T20:31:50.419Z,26.33
2018-07-15T20:35:53.864Z,26.26
2018-07-15T20:39:57.383Z,26.21
2018-07-15T20:44:00.729Z,26.11
2018-07-15T20:48:04.138Z,26.04
2018-07-15T20:52:07.712Z,25.95
2018-07-15T20:56:11.203Z,25.91
2018-07-15T21:00:14.575Z,25.87
2018-07-15T21:04:18.007Z,25.78
2018-07-15T21:08:21.478Z,25.72
2018-07-15T21:12:25.105Z,25.68
2018-07-15T21:16:28.543Z,25.60
2018-07-15T21:20:32.019Z,25.50
2018-07-15T21:24:35.473Z,25.42
2018-07-15T21:28:38.910Z,25.35
2018-07-15T21:32:42.340Z,25.31
2018-07-15T21:36:45.943Z,25.26
2018-07-15T21:40:49.378Z,25.21
2018-07-15T21:44:52.781Z,25.13
2018-07-15T21:48:56.195Z,25.07
2018-07-15T21:52:59.652Z,25.00
2018-07-15T21:57:03.097Z,24.94
2018-07-15T22:01:06.541Z,24.87
2018-07-15T22:05:09.958Z,24.78
2018-07-15T22:09:24.399Z,24.69
2018-07-15T22:13:27.830Z,24.66
2018-07-15T22:17:31.278Z,24.62
2018-07-15T22:21:34.662Z,24.52
2018-07-15T22:25:38.089Z,24.47
2018-07-15T22:29:41.672Z,24.40
2018-07-15T22:33:45.104Z,24.32
2018-07-15T22:37:48.540Z,24.27
2018-07-15T22:41:51.958Z,24.21
2018-07-15T22:45:55.382Z,24.16
2018-07-15T22:49:58.766Z,24.05
2018-07-15T22:54:02.222Z,23.98
2018-07-15T22:58:05.615Z,23.94
2018-07-15T23:02:09.098Z,23.91
2018-07-15T23:06:18.683Z,23.87
2018-07-15T23:10:22.116Z,23.85
2018-07-15T23:14:25.532Z,23.79
2018-07-15T23:18:28.942Z,23.75
2018-07-15T23:22:32.390Z,23.69
2018-07-15T23:26:35.817Z,23.63
2018-07-15T23:30:39.850Z,23.56
2018-07-15T23:34:43.258Z,23.52
2018-07-15T23:38:46.667Z,23.42
2018-07-15T23:42:51.041Z,23.35
2018-07-15T23:46:54.426Z,23.25
2018-07-15T23:50:57.961Z,23.16
2018-07-15T23:55:01.436Z,23.14
2018-07-15T23:59:04.866Z,23.14
